TAF LDZA 280525Z 2806/2906 24005KT CAVOK
                 TX35/2814Z TN21/2903Z
           BECMG 2808/2810 24010KT
           BECMG 2818/2820 25006KT=
TAF LDZA 272325Z 2800/2900 24004KT CAVOK
                 TX34/2814Z TN19/2803Z
           BECMG 2808/2810 24010KT
           BECMG 2818/2820 25004KT=
TAF LDZA 271725Z 2718/2818 24004KT CAVOK
                 TX34/2814Z TN19/2803Z
           BECMG 2808/2810 24010KT=
TAF LDZA 271125Z 2712/2812 24008KT CAVOK
                 TX33/2714Z TN19/2803Z
           TEMPO 2716/2808 24004KT=
TAF LDZA 270525Z 2706/2806 22004KT CAVOK
                 TX33/2714Z TN19/2803Z
           BECMG 2706/2708 22008KT
    PROB30 TEMPO 2710/2715 TSRA FEW040CB
           BECMG 2716/2718 22004KT=
TAF LDZA 262325Z 2700/2800 23004KT 9999 SCT045
                 TX32/2714Z TN20/2703Z
    PROB30 TEMPO 2710/2715 TSRA SCT040 FEW045CB
           TEMPO 2709/2721 24010KT=